Time;durP1;ratioP1;P1;durP2;ratioP2;P2;SDS_P1;SDS_P2;PMS_P1;PMS_P2;Temp;Humidity;BMP_temperature;BMP_pressure;BME280_temperature;BME280_humidity;BME280_pressure;Samples;Min_cycle;Max_cycle;Signal;HPM_P1;HPM_P2
2023/10/29 00:01:39;;;;;;;2.35;1.02;;;16.00;62.80;;;;;;5021374;28;20485;-59
2023/10/29 00:04:07;;;;;;;2.03;0.82;;;16.00;62.70;;;;;;5020943;28;20413;-56
2023/10/29 00:06:34;;;;;;;3.00;1.05;;;16.00;63.30;;;;;;5022096;28;20061;-56
2023/10/29 00:09:03;;;;;;;4.70;1.00;;;16.00;62.50;;;;;;5023216;28;20045;-50
2023/10/29 00:11:30;;;;;;;4.32;1.00;;;16.00;62.50;;;;;;5022620;28;20417;-48
2023/10/29 00:13:59;;;;;;;5.32;1.17;;;16.10;62.50;;;;;;5022710;28;20049;-52
2023/10/29 00:16:26;;;;;;;4.43;1.55;;;16.00;62.50;;;;;;5021479;28;20049;-52
2023/10/29 00:18:54;;;;;;;4.18;1.10;;;16.00;62.40;;;;;;5022539;28;20057;-52
2023/10/29 00:21:21;;;;;;;6.55;1.02;;;16.00;62.40;;;;;;5021647;28;20054;-52
2023/10/29 00:23:48;;;;;;;5.38;1.20;;;16.10;62.40;;;;;;5021572;28;20057;-48
2023/10/29 00:26:17;;;;;;;5.07;1.33;;;16.00;62.20;;;;;;5021216;28;20054;-52
2023/10/29 00:28:44;;;;;;;2.67;0.82;;;16.00;62.20;;;;;;5022223;28;20895;-52
2023/10/29 00:31:11;;;;;;;2.78;1.20;;;16.10;62.20;;;;;;5019473;28;20057;-53
2023/10/29 00:33:40;;;;;;;4.40;0.98;;;16.10;62.30;;;;;;5021927;28;20053;-54
2023/10/29 00:36:09;;;;;;;5.03;1.08;;;16.10;62.20;;;;;;5020932;28;20045;-54
2023/10/29 00:38:36;;;;;;;2.45;0.88;;;16.10;62.20;;;;;;5021293;28;20052;-53
2023/10/29 00:41:04;;;;;;;1.90;0.95;;;16.10;62.20;;;;;;5019440;28;20064;-56
2023/10/29 00:46:07;;;;;;;3.45;1.30;;;16.10;62.00;;;;;;5027811;28;20056;-53
2023/10/29 00:48:35;;;;;;;2.97;1.10;;;16.10;62.00;;;;;;5021307;28;20049;-54
2023/10/29 00:51:03;;;;;;;2.45;0.90;;;16.10;62.00;;;;;;5021149;28;20064;-54
2023/10/29 00:53:31;;;;;;;2.78;0.93;;;16.10;61.80;;;;;;5020559;28;20509;-51
2023/10/29 00:56:00;;;;;;;2.30;0.73;;;16.10;62.50;;;;;;5019409;28;20045;-53
2023/10/29 00:58:28;;;;;;;1.40;0.85;;;16.20;61.80;;;;;;5022181;28;21451;-51
2023/10/29 01:00:56;;;;;;;2.90;1.00;;;16.20;61.80;;;;;;5021497;28;20053;-51
2023/10/29 01:03:23;;;;;;;2.03;0.77;;;16.20;61.90;;;;;;5022954;28;20061;-51
2023/10/29 01:05:51;;;;;;;4.97;1.08;;;16.20;61.70;;;;;;5020290;28;20059;-52
2023/10/29 01:08:19;;;;;;;5.32;1.30;;;16.20;61.70;;;;;;5020748;28;20395;-50
2023/10/29 01:10:46;;;;;;;2.65;1.35;;;16.20;61.60;;;;;;5022246;28;20053;-51
2023/10/29 01:13:14;;;;;;;5.15;1.00;;;16.20;61.60;;;;;;5018584;28;20421;-55
2023/10/29 01:15:41;;;;;;;2.97;1.00;;;16.20;61.40;;;;;;5019520;28;20042;-57
2023/10/29 01:18:10;;;;;;;5.53;1.23;;;16.20;61.30;;;;;;5021528;28;20049;-57
2023/10/29 01:20:38;;;;;;;3.10;1.00;;;16.30;61.30;;;;;;5021800;28;21351;-56
2023/10/29 01:23:05;;;;;;;6.38;1.00;;;16.30;61.10;;;;;;5018967;28;20054;-56
2023/10/29 01:25:33;;;;;;;5.13;1.38;;;16.30;61.00;;;;;;5020294;28;20053;-58
2023/10/29 01:28:00;;;;;;;3.22;0.80;;;16.30;61.00;;;;;;5021314;28;20049;-57
2023/10/29 01:30:28;;;;;;;2.63;0.75;;;16.30;60.90;;;;;;5020100;28;20068;-56
2023/10/29 01:32:55;;;;;;;5.00;1.58;;;16.30;60.80;;;;;;5018842;28;20068;-57
2023/10/29 01:35:23;;;;;;;3.28;0.93;;;16.30;60.60;;;;;;5018117;28;20060;-56
2023/10/29 01:37:51;;;;;;;3.13;0.90;;;16.30;60.60;;;;;;5020155;28;20049;-55
2023/10/29 01:40:18;;;;;;;2.65;1.10;;;16.30;60.60;;;;;;5019968;28;20057;-56
2023/10/29 01:42:46;;;;;;;4.25;1.02;;;16.30;60.50;;;;;;5020181;28;20062;-57
2023/10/29 01:45:16;;;;;;;5.47;1.33;;;16.40;60.60;;;;;;5019831;28;20402;-55
2023/10/29 01:47:44;;;;;;;2.45;0.90;;;16.40;60.50;;;;;;5019632;28;20049;-56
2023/10/29 01:50:11;;;;;;;4.30;1.67;;;16.40;60.40;;;;;;5020125;28;20409;-55
2023/10/29 01:52:40;;;;;;;3.80;0.90;;;16.40;60.30;;;;;;5019631;28;20500;-56
2023/10/29 01:55:08;;;;;;;3.28;1.10;;;16.40;60.20;;;;;;5019527;28;20060;-54
2023/10/29 01:57:36;;;;;;;4.63;1.13;;;16.40;60.20;;;;;;5020746;28;20061;-56
2023/10/29 02:00:05;;;;;;;4.03;1.00;;;16.40;60.10;;;;;;5019828;28;20501;-56
2023/10/29 02:02:32;;;;;;;2.78;1.00;;;16.40;60.00;;;;;;5018906;28;20505;-56
2023/10/29 02:05:00;;;;;;;5.57;0.95;;;16.50;60.00;;;;;;5019716;28;20068;-57
2023/10/29 02:07:27;;;;;;;1.77;0.88;;;16.40;59.80;;;;;;5019170;28;20053;-57
2023/10/29 02:09:55;;;;;;;4.60;0.93;;;16.50;59.90;;;;;;5020932;28;20049;-56
2023/10/29 02:12:23;;;;;;;6.05;1.77;;;16.50;59.90;;;;;;5019102;28;20053;-56
2023/10/29 02:14:50;;;;;;;4.03;1.15;;;16.50;59.90;;;;;;5020402;28;20072;-55
2023/10/29 02:17:17;;;;;;;2.53;0.90;;;16.50;59.80;;;;;;5017486;28;20049;-54
2023/10/29 02:19:45;;;;;;;3.33;0.88;;;16.50;59.80;;;;;;5019078;28;20049;-55
2023/10/29 02:22:13;;;;;;;3.78;1.00;;;16.50;60.50;;;;;;5016859;28;20496;-57
2023/10/29 02:24:40;;;;;;;3.78;0.98;;;16.50;59.90;;;;;;5020174;28;20497;-56
2023/10/29 02:27:08;;;;;;;1.30;0.70;;;16.50;59.90;;;;;;5018131;28;20053;-56
2023/10/29 02:29:35;;;;;;;1.70;0.68;;;16.50;60.00;;;;;;5018709;28;20053;-57
2023/10/29 02:32:02;;;;;;;2.28;0.70;;;16.60;60.10;;;;;;5018950;28;20053;-55
2023/10/29 02:34:29;;;;;;;2.88;0.90;;;16.50;60.10;;;;;;5018955;28;20494;-56
2023/10/29 02:36:57;;;;;;;5.72;0.90;;;16.50;60.10;;;;;;5019937;28;20063;-57
2023/10/29 02:39:25;;;;;;;1.65;0.63;;;16.50;60.20;;;;;;5019556;28;20501;-56
2023/10/29 02:41:52;;;;;;;2.95;0.70;;;16.50;60.30;;;;;;5017238;28;20054;-54
2023/10/29 02:44:20;;;;;;;1.73;0.70;;;16.60;60.40;;;;;;5019461;28;20053;-56
2023/10/29 02:46:47;;;;;;;2.58;0.80;;;16.60;60.40;;;;;;5018719;28;20516;-56
2023/10/29 02:49:14;;;;;;;3.25;0.90;;;16.60;60.40;;;;;;5018366;28;20057;-56
2023/10/29 02:51:41;;;;;;;2.90;1.10;;;16.60;60.50;;;;;;5019592;28;20366;-56
2023/10/29 02:54:09;;;;;;;4.00;1.10;;;16.60;60.50;;;;;;5017780;28;20057;-56
2023/10/29 02:56:37;;;;;;;2.83;0.90;;;16.60;60.50;;;;;;5018698;28;20053;-56
2023/10/29 02:59:05;;;;;;;3.97;0.65;;;16.60;60.50;;;;;;5018891;28;20057;-55
2023/10/29 03:01:32;;;;;;;2.38;0.75;;;16.60;60.50;;;;;;5018946;28;20069;-56
2023/10/29 03:03:59;;;;;;;1.95;0.70;;;16.60;60.50;;;;;;5020957;28;20593;-57
2023/10/29 03:06:26;;;;;;;2.08;0.85;;;16.60;60.40;;;;;;5019364;28;20049;-55
2023/10/29 03:08:53;;;;;;;2.90;0.60;;;16.60;60.40;;;;;;5019698;28;20508;-56
2023/10/29 03:11:21;;;;;;;5.50;0.95;;;16.60;60.20;;;;;;5018579;28;20053;-56
2023/10/29 03:13:49;;;;;;;3.53;0.75;;;16.60;60.20;;;;;;5020107;28;20516;-56
2023/10/29 03:16:16;;;;;;;3.13;0.73;;;16.60;60.20;;;;;;5019707;28;20049;-55
2023/10/29 03:18:44;;;;;;;2.03;0.60;;;16.60;60.30;;;;;;5020101;28;20057;-56
2023/10/29 03:21:15;;;;;;;2.92;1.05;;;16.60;60.20;;;;;;5018117;28;20053;-56
2023/10/29 03:23:42;;;;;;;2.03;0.63;;;16.60;60.90;;;;;;5018734;28;20482;-55
2023/10/29 03:26:09;;;;;;;6.10;0.85;;;16.70;60.20;;;;;;5019626;28;20053;-52
2023/10/29 03:28:37;;;;;;;4.25;0.70;;;16.60;60.20;;;;;;5018650;28;20053;-53
2023/10/29 03:31:12;;;;;;;3.60;0.52;;;16.60;60.80;;;;;;5019249;28;20387;-47
2023/10/29 03:33:40;;;;;;;1.55;0.65;;;16.60;60.00;;;;;;5019510;28;20080;-55
2023/10/29 03:36:08;;;;;;;4.85;0.80;;;16.70;60.10;;;;;;5018527;28;20053;-52
2023/10/29 03:38:36;;;;;;;2.95;0.75;;;16.60;60.00;;;;;;5020818;28;20053;-50
2023/10/29 03:41:03;;;;;;;8.52;0.77;;;16.60;59.90;;;;;;5022485;28;20050;-56
2023/10/29 03:43:31;;;;;;;1.67;0.80;;;16.60;59.90;;;;;;5020901;28;20056;-55
2023/10/29 03:45:59;;;;;;;1.45;0.47;;;16.70;60.00;;;;;;5020181;28;20222;-55
2023/10/29 03:48:28;;;;;;;2.65;0.70;;;16.70;60.00;;;;;;5022320;28;20068;-54
2023/10/29 03:50:55;;;;;;;3.88;0.65;;;16.70;60.00;;;;;;5021104;28;20786;-51
2023/10/29 03:53:22;;;;;;;2.72;0.65;;;16.70;60.00;;;;;;5021921;28;20077;-52
2023/10/29 03:55:51;;;;;;;2.30;0.60;;;16.70;60.00;;;;;;5022455;28;20076;-52
2023/10/29 03:58:18;;;;;;;10.82;1.02;;;16.70;59.80;;;;;;5021975;28;20497;-52
2023/10/29 04:00:51;;;;;;;2.33;0.60;;;16.70;59.70;;;;;;5020620;28;20049;-50
2023/10/29 04:03:19;;;;;;;1.95;0.60;;;16.70;59.70;;;;;;5023197;28;20053;-54
2023/10/29 04:05:47;;;;;;;2.40;0.73;;;16.80;59.70;;;;;;5021396;28;20496;-57
2023/10/29 04:08:16;;;;;;;4.43;1.05;;;16.80;59.70;;;;;;5017961;28;20053;-51
2023/10/29 04:10:44;;;;;;;3.38;0.75;;;16.80;59.60;;;;;;5017258;28;20045;-52
2023/10/29 04:13:11;;;;;;;2.65;0.70;;;16.80;59.40;;;;;;5022300;28;20425;-52
2023/10/29 04:15:38;;;;;;;4.00;0.88;;;16.80;59.40;;;;;;5019169;28;20053;-52
2023/10/29 04:18:06;;;;;;;2.78;0.80;;;16.90;59.30;;;;;;5021208;28;20060;-55
2023/10/29 04:20:33;;;;;;;1.95;0.60;;;16.90;59.10;;;;;;5020342;28;20049;-51
2023/10/29 04:23:01;;;;;;;3.28;0.75;;;16.90;59.10;;;;;;5017052;28;20520;-52
2023/10/29 04:25:29;;;;;;;2.97;1.00;;;16.90;59.00;;;;;;5022120;28;20057;-57
2023/10/29 04:27:56;;;;;;;3.22;0.68;;;16.90;58.80;;;;;;5021357;28;20045;-54
2023/10/29 04:30:23;;;;;;;1.58;0.70;;;16.90;58.60;;;;;;5020885;28;20493;-52
2023/10/29 04:32:50;;;;;;;4.78;0.80;;;16.90;58.60;;;;;;5020231;28;20054;-56
2023/10/29 04:35:18;;;;;;;1.75;0.77;;;17.00;58.60;;;;;;5019584;28;20421;-52
2023/10/29 04:37:45;;;;;;;2.53;0.70;;;17.00;58.60;;;;;;5020972;28;20050;-56
2023/10/29 04:40:14;;;;;;;3.92;0.98;;;17.00;58.50;;;;;;5020842;28;20137;-52
2023/10/29 04:42:41;;;;;;;2.53;1.00;;;17.00;58.20;;;;;;5020642;28;20058;-55
2023/10/29 04:45:11;;;;;;;2.83;0.60;;;17.00;58.20;;;;;;5020683;28;20061;-55
2023/10/29 04:47:38;;;;;;;2.53;0.60;;;17.10;58.30;;;;;;5021082;28;20053;-56
2023/10/29 04:50:07;;;;;;;2.85;0.60;;;17.10;58.30;;;;;;5016264;28;20057;-58
2023/10/29 04:52:34;;;;;;;2.85;0.60;;;17.20;58.40;;;;;;5020613;28;20057;-54
2023/10/29 04:55:01;;;;;;;1.73;0.60;;;17.10;58.30;;;;;;5021196;28;20391;-56
2023/10/29 04:57:30;;;;;;;3.42;0.40;;;17.20;58.40;;;;;;5020064;28;20045;-55
2023/10/29 04:59:57;;;;;;;1.30;0.60;;;17.20;58.20;;;;;;5018239;28;20510;-56
2023/10/29 05:02:25;;;;;;;2.38;0.57;;;17.20;58.10;;;;;;5018452;28;20057;-55
2023/10/29 05:04:53;;;;;;;1.17;0.77;;;17.20;58.10;;;;;;5020648;28;20695;-55
2023/10/29 05:07:21;;;;;;;6.10;1.10;;;17.20;58.10;;;;;;5020527;28;20052;-55
2023/10/29 05:09:48;;;;;;;4.38;1.02;;;17.20;58.10;;;;;;5018039;28;20516;-56
2023/10/29 05:12:16;;;;;;;1.77;0.75;;;17.30;58.10;;;;;;5018188;28;20509;-56
2023/10/29 05:14:44;;;;;;;3.47;0.68;;;17.30;57.90;;;;;;5019843;28;20410;-57
2023/10/29 05:17:11;;;;;;;2.90;0.80;;;17.30;57.80;;;;;;5016360;28;20418;-54
2023/10/29 05:19:39;;;;;;;2.03;0.70;;;17.20;57.60;;;;;;5016630;28;20056;-57
2023/10/29 05:22:06;;;;;;;1.13;0.50;;;17.30;57.50;;;;;;5017413;28;20549;-56
2023/10/29 05:24:33;;;;;;;3.00;0.80;;;17.30;57.50;;;;;;5018391;28;20049;-53
2023/10/29 05:27:01;;;;;;;4.47;0.80;;;17.30;57.30;;;;;;5017825;28;20057;-57
2023/10/29 05:29:28;;;;;;;2.67;0.60;;;17.30;57.30;;;;;;5020396;28;20482;-55
2023/10/29 05:31:57;;;;;;;2.35;0.60;;;17.30;57.30;;;;;;5020178;28;20061;-56
2023/10/29 05:34:24;;;;;;;2.05;0.63;;;17.30;57.10;;;;;;5018606;28;20496;-56
2023/10/29 05:36:51;;;;;;;1.63;0.68;;;17.30;57.10;;;;;;5019371;28;20053;-56
2023/10/29 05:39:18;;;;;;;1.23;0.68;;;17.30;56.90;;;;;;5020868;28;20529;-56
2023/10/29 05:41:45;;;;;;;2.88;0.70;;;17.40;57.00;;;;;;5016788;28;20045;-56
2023/10/29 05:44:14;;;;;;;1.20;0.52;;;17.40;57.10;;;;;;5019988;28;20057;-53
2023/10/29 05:46:41;;;;;;;2.20;0.70;;;17.40;57.00;;;;;;5016541;28;20049;-54
2023/10/29 05:49:09;;;;;;;4.30;0.88;;;17.40;56.80;;;;;;5020688;28;20603;-52
2023/10/29 05:51:37;;;;;;;1.85;0.60;;;17.40;56.70;;;;;;5017365;28;20046;-53
2023/10/29 05:54:04;;;;;;;1.63;0.50;;;17.40;56.60;;;;;;5019635;28;20062;-51
2023/10/29 05:56:31;;;;;;;1.85;0.57;;;17.40;56.50;;;;;;5019204;28;20052;-57
2023/10/29 05:58:58;;;;;;;2.95;0.60;;;17.50;56.60;;;;;;5019844;28;20060;-56
2023/10/29 06:01:26;;;;;;;3.25;0.80;;;17.40;56.60;;;;;;5015964;28;20623;-55
2023/10/29 06:03:53;;;;;;;137.98;61.72;;;17.40;56.00;;;;;;5018968;28;20042;-54
2023/10/29 06:06:21;;;;;;;14.93;7.88;;;17.50;56.10;;;;;;5018579;28;20065;-54
2023/10/29 06:08:49;;;;;;;3.42;1.02;;;17.50;55.90;;;;;;5018483;28;20068;-55
2023/10/29 06:11:16;;;;;;;1.50;0.52;;;17.50;55.70;;;;;;5018951;28;20049;-57
2023/10/29 06:13:44;;;;;;;1.42;0.57;;;17.50;55.70;;;;;;5020102;28;20060;-51
2023/10/29 06:16:11;;;;;;;1.30;0.65;;;17.50;55.60;;;;;;5018146;28;20065;-56
2023/10/29 06:18:39;;;;;;;2.15;0.30;;;17.50;55.90;;;;;;5018268;28;20512;-56
2023/10/29 06:21:06;;;;;;;1.25;0.60;;;17.50;56.10;;;;;;5016843;28;20060;-53
2023/10/29 06:23:34;;;;;;;1.50;0.45;;;17.50;56.20;;;;;;5019640;28;20058;-55
2023/10/29 06:26:06;;;;;;;1.25;0.70;;;17.50;56.00;;;;;;5019765;28;20076;-54
2023/10/29 06:28:34;;;;;;;12.85;1.05;;;17.60;55.90;;;;;;5021813;28;20045;-54
2023/10/29 06:31:01;;;;;;;4.50;0.70;;;17.50;56.00;;;;;;5016786;28;20049;-55
2023/10/29 06:33:28;;;;;;;2.50;1.25;;;17.60;56.00;;;;;;5017746;28;20049;-55
2023/10/29 06:35:57;;;;;;;0.63;0.35;;;17.60;56.10;;;;;;5017648;28;20077;-54
2023/10/29 06:38:24;;;;;;;1.58;0.30;;;17.50;56.00;;;;;;5018048;28;20060;-55
2023/10/29 06:40:53;;;;;;;1.38;0.63;;;17.50;56.00;;;;;;5018101;28;20048;-56
2023/10/29 06:43:20;;;;;;;2.15;0.40;;;17.50;56.10;;;;;;5018477;28;20053;-55
2023/10/29 06:45:48;;;;;;;1.50;0.50;;;17.50;56.00;;;;;;5018565;28;20478;-53
2023/10/29 06:48:15;;;;;;;2.97;0.65;;;17.50;56.00;;;;;;5018411;28;20049;-53
2023/10/29 06:50:43;;;;;;;1.63;0.40;;;17.50;56.00;;;;;;5017329;28;20057;-49
2023/10/29 06:53:10;;;;;;;1.75;0.63;;;17.50;56.10;;;;;;5018955;28;20061;-52
2023/10/29 06:55:37;;;;;;;40.45;22.83;;;17.50;56.00;;;;;;5020493;28;20438;-54
2023/10/29 06:58:06;;;;;;;34.70;18.25;;;17.50;55.80;;;;;;5020159;28;20413;-56
2023/10/29 07:00:33;;;;;;;9.95;6.10;;;17.50;55.90;;;;;;5016159;28;20425;-56
2023/10/29 07:03:00;;;;;;;7.32;5.00;;;17.50;56.00;;;;;;5019414;28;20111;-55
2023/10/29 07:05:28;;;;;;;2.47;1.20;;;17.50;56.10;;;;;;5017735;28;20834;-53
2023/10/29 07:07:56;;;;;;;3.50;2.63;;;17.50;56.10;;;;;;5019111;28;20050;-55
2023/10/29 07:10:23;;;;;;;6.82;5.22;;;17.50;56.10;;;;;;5019652;28;20529;-54
2023/10/29 07:12:50;;;;;;;2.72;1.70;;;17.60;56.10;;;;;;5018435;28;20049;-54
2023/10/29 07:15:19;;;;;;;6.18;1.45;;;17.60;56.10;;;;;;5022109;28;20049;-51
2023/10/29 07:17:46;;;;;;;2.08;1.20;;;17.50;56.00;;;;;;5023140;28;20057;-51
2023/10/29 07:20:13;;;;;;;2.95;1.35;;;17.60;56.20;;;;;;5021822;28;21409;-51
2023/10/29 07:22:41;;;;;;;1.60;1.02;;;17.60;56.10;;;;;;5021473;28;20046;-53
2023/10/29 07:25:08;;;;;;;4.47;1.55;;;17.60;56.00;;;;;;5021590;28;20378;-52
2023/10/29 07:27:36;;;;;;;1.67;0.90;;;17.50;55.90;;;;;;5022267;28;20405;-53
2023/10/29 07:30:04;;;;;;;5.38;0.60;;;17.60;55.90;;;;;;5021938;28;20053;-52
2023/10/29 07:32:33;;;;;;;1.08;0.55;;;17.60;56.00;;;;;;5019918;28;20053;-51
2023/10/29 07:35:00;;;;;;;2.45;0.65;;;17.60;56.10;;;;;;5021780;28;20049;-54
2023/10/29 07:37:28;;;;;;;2.15;0.65;;;17.60;56.20;;;;;;5023750;28;20061;-52
2023/10/29 07:39:55;;;;;;;2.90;0.70;;;17.60;56.10;;;;;;5022417;28;20264;-50
2023/10/29 07:42:23;;;;;;;2.10;0.80;;;17.60;56.10;;;;;;5021250;28;20053;-54
2023/10/29 07:44:50;;;;;;;1.33;0.40;;;17.60;56.10;;;;;;5022414;28;20417;-52
2023/10/29 07:47:19;;;;;;;1.70;0.63;;;17.60;56.20;;;;;;5022057;28;20053;-54
2023/10/29 07:49:47;;;;;;;4.75;1.10;;;17.60;56.10;;;;;;5021195;28;20532;-54
2023/10/29 07:52:15;;;;;;;3.95;0.77;;;17.60;56.10;;;;;;5021676;28;20053;-56
2023/10/29 07:54:42;;;;;;;1.88;1.02;;;17.60;56.10;;;;;;5021047;28;20489;-55
2023/10/29 07:57:10;;;;;;;0.93;0.55;;;17.60;56.20;;;;;;5022593;28;20061;-53
2023/10/29 07:59:37;;;;;;;1.45;0.60;;;17.60;56.30;;;;;;5022168;28;20053;-55
2023/10/29 08:02:05;;;;;;;2.38;0.70;;;17.70;56.40;;;;;;5017511;28;20068;-51
2023/10/29 08:04:32;;;;;;;2.50;0.68;;;17.70;56.60;;;;;;5021255;28;20065;-53
2023/10/29 08:07:01;;;;;;;1.20;0.60;;;17.70;56.50;;;;;;5021929;28;20045;-57
2023/10/29 08:09:28;;;;;;;2.42;0.50;;;17.70;56.30;;;;;;5022616;28;20053;-57
2023/10/29 08:11:56;;;;;;;3.42;0.70;;;17.70;56.40;;;;;;5022245;28;20053;-57
2023/10/29 08:14:23;;;;;;;2.17;0.70;;;17.70;56.60;;;;;;5021295;28;20049;-55
2023/10/29 08:16:50;;;;;;;1.55;0.65;;;17.70;56.70;;;;;;5019261;28;20057;-56
2023/10/29 08:19:17;;;;;;;3.08;0.70;;;17.80;56.70;;;;;;5021898;28;20413;-57
2023/10/29 08:21:44;;;;;;;2.63;0.70;;;17.80;56.40;;;;;;5020159;28;20050;-56
2023/10/29 08:24:13;;;;;;;3.53;0.82;;;17.80;56.40;;;;;;5019987;28;20053;-56
2023/10/29 08:26:40;;;;;;;2.67;0.60;;;17.80;56.10;;;;;;5021708;28;20509;-57
2023/10/29 08:29:08;;;;;;;1.23;0.60;;;17.90;56.10;;;;;;5021316;28;20057;-57
2023/10/29 08:31:35;;;;;;;1.85;0.60;;;17.90;55.90;;;;;;5020495;28;20061;-55
2023/10/29 08:34:02;;;;;;;3.63;0.75;;;17.90;55.70;;;;;;5022235;28;20061;-57
2023/10/29 08:36:30;;;;;;;1.35;0.30;;;17.90;55.80;;;;;;5020794;28;20060;-56
2023/10/29 08:38:57;;;;;;;2.08;0.82;;;18.00;55.90;;;;;;5017880;28;20402;-56
2023/10/29 08:41:25;;;;;;;2.35;0.75;;;18.00;56.00;;;;;;5020398;28;20058;-57
2023/10/29 08:43:53;;;;;;;3.83;0.80;;;18.00;56.00;;;;;;5021118;28;20493;-56
2023/10/29 08:46:20;;;;;;;2.17;0.80;;;18.10;56.10;;;;;;5019309;28;20053;-56
2023/10/29 08:48:47;;;;;;;3.50;1.42;;;18.10;56.10;;;;;;5021135;28;20045;-56
2023/10/29 08:51:15;;;;;;;4.10;1.63;;;18.10;55.80;;;;;;5019904;28;20056;-55
2023/10/29 08:53:43;;;;;;;6.95;2.00;;;18.10;55.80;;;;;;5019370;28;20058;-55
2023/10/29 08:56:10;;;;;;;4.07;1.67;;;18.10;55.70;;;;;;5021827;28;20064;-56
2023/10/29 08:58:39;;;;;;;3.20;1.00;;;18.20;55.80;;;;;;5018547;28;20060;-56
2023/10/29 09:01:11;;;;;;;2.28;0.73;;;18.20;55.50;;;;;;5020228;28;20053;-56
2023/10/29 09:03:38;;;;;;;4.40;0.90;;;18.20;55.40;;;;;;5020203;28;20418;-56
2023/10/29 09:06:07;;;;;;;5.10;2.70;;;18.20;55.30;;;;;;5018984;28;20631;-56
2023/10/29 09:08:34;;;;;;;5.85;2.70;;;18.20;55.40;;;;;;5019025;28;20056;-56
2023/10/29 09:11:01;;;;;;;3.25;1.20;;;18.20;55.30;;;;;;5021227;28;20049;-56
2023/10/29 09:16:54;;;;;;;1.13;0.57;;;18.20;55.10;;;;;;5034412;28;20048;-53
2023/10/29 09:22:43;;;;;;;1.10;0.50;;;18.20;54.80;;;;;;5025800;28;20036;-57
2023/10/29 09:25:10;;;;;;;3.13;0.57;;;18.20;54.80;;;;;;5018199;28;20057;-56
2023/10/29 09:27:38;;;;;;;2.50;0.52;;;18.20;54.60;;;;;;5019857;28;20417;-56
2023/10/29 09:30:06;;;;;;;1.38;0.47;;;18.20;54.60;;;;;;5019152;28;20053;-58
2023/10/29 09:32:35;;;;;;;2.25;0.50;;;18.20;54.70;;;;;;5019310;28;20056;-59
2023/10/29 09:35:04;;;;;;;2.10;0.60;;;18.20;54.60;;;;;;5019511;28;20056;-56
2023/10/29 09:37:34;;;;;;;1.48;0.57;;;18.20;54.60;;;;;;5020928;28;20405;-56
2023/10/29 09:40:02;;;;;;;2.22;0.40;;;18.20;54.70;;;;;;5019635;28;20494;-56
2023/10/29 09:42:30;;;;;;;3.05;0.70;;;18.20;54.80;;;;;;5018952;28;20068;-57
2023/10/29 09:45:00;;;;;;;6.25;0.88;;;18.20;54.90;;;;;;5019915;28;20057;-56
2023/10/29 09:47:28;;;;;;;4.13;0.70;;;18.20;54.90;;;;;;5019411;28;20414;-55
2023/10/29 09:49:57;;;;;;;3.67;0.52;;;18.20;55.10;;;;;;5020252;28;20061;-57
2023/10/29 09:52:29;;;;;;;1.10;0.47;;;18.20;55.30;;;;;;5020322;28;20417;-55
2023/10/29 09:54:57;;;;;;;1.98;0.63;;;18.20;55.20;;;;;;5018449;28;20060;-57
2023/10/29 09:57:25;;;;;;;3.13;0.73;;;18.30;55.30;;;;;;5020362;28;20080;-57
2023/10/29 09:59:52;;;;;;;2.35;0.70;;;18.30;55.40;;;;;;5019985;28;20124;-56
2023/10/29 10:02:20;;;;;;;1.67;0.57;;;18.20;55.50;;;;;;5019085;28;20045;-56
2023/10/29 10:04:48;;;;;;;2.00;0.77;;;18.20;55.50;;;;;;5018107;28;20064;-56
2023/10/29 10:07:17;;;;;;;2.67;0.80;;;18.30;55.50;;;;;;5018576;28;20494;-57
2023/10/29 10:09:52;;;;;;;13.73;1.30;;;18.30;55.30;;;;;;5017691;28;20049;-55
2023/10/29 10:12:20;;;;;;;4.40;0.65;;;18.20;55.00;;;;;;5018416;28;20060;-56
2023/10/29 10:14:48;;;;;;;2.47;0.60;;;18.20;55.20;;;;;;5016117;28;20363;-56
2023/10/29 10:17:15;;;;;;;1.85;0.40;;;18.20;55.30;;;;;;5019097;28;20058;-57
2023/10/29 10:19:42;;;;;;;4.28;0.63;;;18.20;55.40;;;;;;5017620;28;20053;-57
2023/10/29 10:22:10;;;;;;;4.80;0.30;;;18.20;55.60;;;;;;5018186;28;20398;-57
2023/10/29 10:24:40;;;;;;;0.90;0.38;;;18.20;55.60;;;;;;5018630;28;20061;-57
2023/10/29 10:27:09;;;;;;;2.85;0.30;;;18.20;55.60;;;;;;5019163;28;20056;-51
2023/10/29 10:29:36;;;;;;;2.20;0.40;;;18.20;55.80;;;;;;5018596;28;20494;-55
2023/10/29 10:32:05;;;;;;;2.10;0.50;;;18.20;55.80;;;;;;5017010;28;20053;-55
2023/10/29 10:34:34;;;;;;;2.20;0.60;;;18.20;55.80;;;;;;5018573;28;20053;-53
2023/10/29 10:37:02;;;;;;;19.33;0.90;;;18.20;55.70;;;;;;5018427;28;20501;-53
2023/10/29 10:39:31;;;;;;;1.50;0.60;;;18.20;55.80;;;;;;5019013;28;20050;-52
2023/10/29 10:42:02;;;;;;;2.30;0.47;;;18.20;56.00;;;;;;5016533;28;20045;-54
2023/10/29 10:44:30;;;;;;;2.70;0.88;;;18.20;56.00;;;;;;5016982;28;20068;-51
2023/10/29 10:47:00;;;;;;;3.33;0.63;;;18.20;55.90;;;;;;5016821;28;20053;-56
2023/10/29 10:49:31;;;;;;;1.70;0.60;;;18.20;55.90;;;;;;5020355;28;20053;-54
2023/10/29 10:52:01;;;;;;;1.92;0.57;;;18.10;55.70;;;;;;5022530;28;20045;-56
2023/10/29 10:54:29;;;;;;;5.15;0.80;;;18.20;55.80;;;;;;5021788;28;20049;-55
2023/10/29 10:56:57;;;;;;;0.82;0.38;;;18.20;55.90;;;;;;5021133;28;20057;-55
2023/10/29 10:59:25;;;;;;;3.55;0.82;;;18.20;56.00;;;;;;5023800;28;20515;-53
2023/10/29 11:01:53;;;;;;;4.00;0.70;;;18.20;56.10;;;;;;5022469;28;20053;-56
2023/10/29 11:04:26;;;;;;;2.00;0.82;;;18.20;55.80;;;;;;5021058;28;20057;-54
2023/10/29 11:06:53;;;;;;;3.95;0.80;;;18.10;55.70;;;;;;5021290;28;20045;-54
2023/10/29 11:09:22;;;;;;;1.55;0.75;;;18.20;55.60;;;;;;5023221;28;20053;-54
2023/10/29 11:11:52;;;;;;;6.28;0.90;;;18.10;55.20;;;;;;5021088;28;20413;-55
2023/10/29 11:14:21;;;;;;;1.60;0.45;;;18.10;55.20;;;;;;5023662;28;20060;-53
2023/10/29 11:16:53;;;;;;;5.65;0.88;;;18.10;55.20;;;;;;5022656;28;20049;-54
2023/10/29 11:19:45;;;;;;;2.47;0.60;;;18.10;55.20;;;;;;5020716;28;20049;-56
2023/10/29 11:22:14;;;;;;;3.50;0.93;;;18.20;55.50;;;;;;5004367;28;20068;-52
2023/10/29 11:24:41;;;;;;;3.08;0.60;;;18.20;55.60;;;;;;5020644;28;20045;-54
2023/10/29 11:27:34;;;;;;;1.50;0.43;;;18.10;55.00;;;;;;5021579;28;20422;-53
2023/10/29 11:30:12;;;;;;;3.45;0.60;;;18.20;55.00;;;;;;5020563;28;20045;-55
2023/10/29 11:32:41;;;;;;;2.30;0.40;;;18.20;55.20;;;;;;5023713;28;20536;-55
2023/10/29 11:35:19;;;;;;;5.13;1.02;;;18.20;55.40;;;;;;5020419;28;20068;-55
2023/10/29 11:37:47;;;;;;;5.22;0.47;;;18.20;55.60;;;;;;5021208;28;20061;-57
2023/10/29 11:40:35;;;;;;;6.88;0.80;;;18.20;55.70;;;;;;5020714;28;20054;-58
2023/10/29 11:43:15;;;;;;;2.13;0.68;;;18.20;55.50;;;;;;5021962;28;20302;-56
2023/10/29 11:45:44;;;;;;;1.20;0.57;;;18.20;55.50;;;;;;5018697;28;20064;-56
2023/10/29 11:48:13;;;;;;;3.28;0.60;;;18.20;55.10;;;;;;5018323;28;20064;-55
2023/10/29 11:50:41;;;;;;;2.28;0.50;;;18.20;54.90;;;;;;5018432;28;20493;-56
2023/10/29 11:53:22;;;;;;;1.10;0.50;;;18.20;54.90;;;;;;5016783;28;20061;-56
2023/10/29 11:55:51;;;;;;;2.85;0.60;;;18.20;55.10;;;;;;5020922;28;20144;-56
2023/10/29 11:58:23;;;;;;;1.05;0.55;;;18.30;54.90;;;;;;5023718;28;20467;-56
2023/10/29 12:00:51;;;;;;;0.80;0.50;;;18.30;54.90;;;;;;5022337;28;20045;-56
2023/10/29 12:03:21;;;;;;;0.98;0.50;;;18.30;54.70;;;;;;5024050;28;20041;-57
2023/10/29 12:05:49;;;;;;;1.05;0.43;;;18.30;54.80;;;;;;5023982;28;20049;-56
2023/10/29 12:08:16;;;;;;;2.83;0.60;;;18.30;54.90;;;;;;5021608;28;20065;-57
2023/10/29 12:10:47;;;;;;;1.23;0.40;;;18.30;54.80;;;;;;5023915;28;20092;-57
2023/10/29 12:13:15;;;;;;;5.97;0.50;;;18.30;54.80;;;;;;5021593;28;20049;-57
2023/10/29 12:15:47;;;;;;;2.25;0.50;;;18.30;54.90;;;;;;5022157;28;20485;-57
2023/10/29 12:18:23;;;;;;;0.47;0.30;;;18.30;55.10;;;;;;5023409;28;20057;-58
2023/10/29 12:20:50;;;;;;;1.17;0.40;;;18.30;54.90;;;;;;5022497;28;20505;-56
2023/10/29 12:23:18;;;;;;;1.25;0.40;;;18.30;54.90;;;;;;5023594;28;20068;-56
2023/10/29 12:25:45;;;;;;;0.90;0.30;;;18.30;54.90;;;;;;5022274;28;20060;-55
2023/10/29 12:28:14;;;;;;;2.17;0.50;;;18.30;54.70;;;;;;5023249;28;20053;-55
2023/10/29 12:30:43;;;;;;;0.52;0.30;;;18.30;54.80;;;;;;5023025;28;20056;-56
2023/10/29 12:33:22;;;;;;;1.90;0.80;;;18.30;54.80;;;;;;5023675;28;20661;-55
2023/10/29 12:35:50;;;;;;;2.03;0.43;;;18.30;54.90;;;;;;5021506;28;20053;-56
2023/10/29 12:38:19;;;;;;;1.15;0.40;;;18.30;55.10;;;;;;5021662;28;20088;-56
2023/10/29 12:41:11;;;;;;;3.65;0.75;;;18.30;55.10;;;;;;5021603;28;20049;-56
2023/10/29 12:43:42;;;;;;;1.55;0.40;;;18.30;55.00;;;;;;5020190;28;20072;-55
2023/10/29 12:46:11;;;;;;;2.58;0.50;;;18.30;55.50;;;;;;5021906;28;20057;-56
2023/10/29 12:48:57;;;;;;;0.63;0.43;;;18.30;54.90;;;;;;5020532;28;20042;-56
2023/10/29 12:51:26;;;;;;;0.50;0.20;;;18.30;54.80;;;;;;5020086;28;20056;-56
2023/10/29 12:54:08;;;;;;;1.42;0.50;;;18.40;54.90;;;;;;5021515;28;20050;-55
2023/10/29 12:56:48;;;;;;;0.40;0.28;;;18.30;54.60;;;;;;5022181;28;20255;-56
2023/10/29 12:59:15;;;;;;;0.98;0.30;;;18.30;54.70;;;;;;5020948;28;20060;-56
2023/10/29 13:01:48;;;;;;;1.98;0.55;;;18.30;54.60;;;;;;5021174;28;20492;-55